createdAt,value
2023-04-11T00:00:07.093Z,5.52
2023-04-11T00:05:14.452Z,5.53
2023-04-11T00:10:17.680Z,5.43
2023-04-11T00:15:24.261Z,5.29
2023-04-11T00:20:27.312Z,5.22
2023-04-11T00:25:30.425Z,5.20
2023-04-11T00:30:33.164Z,5.20
2023-04-11T00:35:38.051Z,5.19
2023-04-11T00:40:41.036Z,5.13
2023-04-11T00:45:44.132Z,5.16
2023-04-11T00:50:47.133Z,5.16
2023-04-11T00:55:50.693Z,5.20
2023-04-11T01:00:53.739Z,5.19
2023-04-11T01:05:56.967Z,5.21
2023-04-11T01:11:00.150Z,5.30
2023-04-11T01:16:04.299Z,5.42
2023-04-11T01:21:07.756Z,5.49
2023-04-11T01:26:10.826Z,5.54
2023-04-11T01:31:13.811Z,5.65
2023-04-11T01:36:16.683Z,5.65
2023-04-11T01:41:20.194Z,5.72
2023-04-11T01:46:24.834Z,5.78
2023-04-11T01:51:28.039Z,5.78
2023-04-11T01:56:31.028Z,5.88
2023-04-11T02:01:36.465Z,5.89
2023-04-11T02:06:39.334Z,6.00
2023-04-11T02:11:42.189Z,6.01
2023-04-11T02:16:52.786Z,6.12
2023-04-11T02:21:55.648Z,6.12
2023-04-11T02:26:58.363Z,6.13
2023-04-11T02:32:01.835Z,6.19
2023-04-11T02:37:04.843Z,6.22
2023-04-11T02:42:10.056Z,6.27
2023-04-11T02:47:12.730Z,6.25
2023-04-11T02:52:16.208Z,6.27
2023-04-11T02:57:19.165Z,6.28
2023-04-11T03:02:23.980Z,6.41
2023-04-11T03:07:30.181Z,6.61
2023-04-11T03:12:33.183Z,6.85
2023-04-11T03:17:39.840Z,7.20
2023-04-11T03:22:44.568Z,7.51
2023-04-11T03:27:47.764Z,8.10
2023-04-11T03:32:53.251Z,8.37
2023-04-11T03:37:56.235Z,8.96
2023-04-11T03:43:04.326Z,9.74
2023-04-11T03:48:10.399Z,10.55
2023-04-11T03:53:27.013Z,11.10
2023-04-11T03:58:34.987Z,12.04
2023-04-11T04:03:38.405Z,12.45
2023-04-11T04:08:45.761Z,12.22
2023-04-11T04:13:49.112Z,11.95
2023-04-11T04:18:55.735Z,12.20
2023-04-11T04:24:03.888Z,12.43
2023-04-11T04:29:39.366Z,13.73
2023-04-11T04:34:49.750Z,14.66
2023-04-11T04:40:08.922Z,15.91
2023-04-11T04:45:22.766Z,15.88
2023-04-11T04:50:25.682Z,15.15
2023-04-11T04:55:31.311Z,14.41
2023-04-11T05:00:34.720Z,14.57
2023-04-11T05:05:41.301Z,16.01
2023-04-11T05:10:44.496Z,16.11
2023-04-11T05:15:49.446Z,15.77
2023-04-11T05:20:52.722Z,15.05
2023-04-11T05:25:59.853Z,15.27
2023-04-11T05:31:03.647Z,15.94
2023-04-11T05:36:07.232Z,18.16
2023-04-11T05:41:12.068Z,17.54
2023-04-11T05:46:15.422Z,18.11
2023-04-11T05:51:18.586Z,18.77
2023-04-11T05:56:21.570Z,19.34
2023-04-11T06:01:26.571Z,20.05
2023-04-11T06:06:31.790Z,21.44
2023-04-11T06:11:34.573Z,21.13
2023-04-11T06:16:39.257Z,21.45
2023-04-11T06:21:42.036Z,21.37
2023-04-11T06:26:45.224Z,21.96
2023-04-11T06:31:50.747Z,23.13
2023-04-11T06:36:53.934Z,24.09
2023-04-11T06:41:56.815Z,24.05
2023-04-11T06:47:01.653Z,23.14
2023-04-11T06:52:04.570Z,23.09
2023-04-11T06:57:07.385Z,22.55
2023-04-11T07:02:10.420Z,23.44
2023-04-11T07:07:13.210Z,23.92
2023-04-11T07:12:16.084Z,23.87
2023-04-11T07:17:18.892Z,23.53
2023-04-11T07:22:22.074Z,24.19
2023-04-11T07:27:25.028Z,23.49
2023-04-11T07:32:27.895Z,23.78
2023-04-11T07:37:31.287Z,24.38
2023-04-11T07:42:34.101Z,25.12
2023-04-11T07:47:38.340Z,25.35
2023-04-11T07:52:41.268Z,24.58
2023-04-11T07:57:44.064Z,24.73
2023-04-11T08:02:47.224Z,25.54
2023-04-11T08:07:52.348Z,24.49
2023-04-11T08:12:56.669Z,24.22
2023-04-11T08:18:00.041Z,24.98
2023-04-11T08:23:06.475Z,24.80
2023-04-11T08:28:11.734Z,24.61
2023-04-11T08:33:16.047Z,23.99
2023-04-11T08:38:18.913Z,23.85
2023-04-11T08:43:22.370Z,23.05
2023-04-11T08:48:26.726Z,23.85
2023-04-11T08:53:30.700Z,23.45
2023-04-11T08:58:33.577Z,23.01
2023-04-11T09:03:54.309Z,23.48
2023-04-11T09:09:01.996Z,24.64
2023-04-11T09:14:09.505Z,24.96
2023-04-11T09:19:33.645Z,24.38
2023-04-11T09:24:37.278Z,24.52
2023-04-11T09:29:45.815Z,25.50
2023-04-11T09:34:52.154Z,25.05
2023-04-11T09:39:59.816Z,24.82
2023-04-11T09:45:03.042Z,24.98
2023-04-11T09:50:08.141Z,24.07
2023-04-11T09:55:29.899Z,23.44
2023-04-11T10:00:33.865Z,24.20
2023-04-11T10:05:37.989Z,24.29
2023-04-11T10:10:44.130Z,23.63
2023-04-11T10:16:06.460Z,25.25
2023-04-11T10:21:29.463Z,24.28
2023-04-11T10:26:48.488Z,23.70
2023-04-11T10:32:13.182Z,23.67
2023-04-11T10:37:19.578Z,24.05
2023-04-11T10:42:36.541Z,23.03
2023-04-11T10:47:39.618Z,22.30
2023-04-11T10:52:42.708Z,22.29
2023-04-11T10:58:09.548Z,23.30
2023-04-11T11:03:17.265Z,23.62
2023-04-11T11:08:33.857Z,23.61
2023-04-11T11:13:41.433Z,23.66
2023-04-11T11:18:53.176Z,23.82
2023-04-11T11:24:03.944Z,23.67
2023-04-11T11:29:08.428Z,24.01
2023-04-11T11:34:23.582Z,23.48
2023-04-11T11:39:35.846Z,22.82
2023-04-11T11:44:39.333Z,22.46
2023-04-11T12:34:34.100Z,20.37
2023-04-11T12:39:38.029Z,20.04
2023-04-11T12:44:41.153Z,19.86
2023-04-11T12:49:45.915Z,19.64
2023-04-11T12:54:50.433Z,19.56
2023-04-11T12:59:54.877Z,19.68
2023-04-11T13:05:07.518Z,19.84
2023-04-11T13:10:11.586Z,19.68
2023-04-11T13:15:17.566Z,19.63
2023-04-11T13:20:23.872Z,19.35
2023-04-11T13:25:32.964Z,19.56
2023-04-11T13:30:37.513Z,19.41
2023-04-11T13:35:41.211Z,19.39
2023-04-11T13:40:49.404Z,19.28
2023-04-11T13:45:53.210Z,19.31
2023-04-11T13:50:57.931Z,19.24
2023-04-11T13:56:00.890Z,19.12
2023-04-11T14:01:23.391Z,19.07
2023-04-11T14:06:26.662Z,19.04
2023-04-11T14:11:30.681Z,18.96
2023-04-11T14:16:34.248Z,18.93
2023-04-11T14:21:58.437Z,18.88
2023-04-11T14:27:03.465Z,18.81
2023-04-11T14:32:07.796Z,18.71
2023-04-11T14:37:19.275Z,18.65
2023-04-11T14:42:23.531Z,18.60
2023-04-11T14:47:30.857Z,18.52
2023-04-11T14:52:36.718Z,18.44
2023-04-11T14:58:06.426Z,18.32
2023-04-11T15:03:11.968Z,18.18
2023-04-11T15:08:17.040Z,18.13
2023-04-11T15:13:23.230Z,18.00
2023-04-11T15:18:32.435Z,17.88
2023-04-11T15:23:35.328Z,17.71
2023-04-11T15:28:41.882Z,17.49
2023-04-11T15:33:45.282Z,17.28
2023-04-11T15:38:50.231Z,17.13
2023-04-11T15:43:53.473Z,16.94
2023-04-11T15:49:03.680Z,16.78
2023-04-11T15:54:10.086Z,16.49
2023-04-11T15:59:15.881Z,16.25
2023-04-11T16:04:21.249Z,16.09
2023-04-11T16:09:31.425Z,15.91
2023-04-11T16:14:34.791Z,15.80
2023-04-11T16:19:42.722Z,15.65
2023-04-11T16:24:45.935Z,15.49
2023-04-11T16:29:49.545Z,15.34
2023-04-11T16:34:55.338Z,15.15
2023-04-11T16:39:58.697Z,14.92
2023-04-11T16:45:01.384Z,14.86
2023-04-11T16:50:06.401Z,14.70
2023-04-11T16:55:12.098Z,14.56
2023-04-11T17:00:17.180Z,14.39
2023-04-11T17:05:20.212Z,14.34
2023-04-11T17:10:23.485Z,14.23
2023-04-11T17:15:27.004Z,14.13
2023-04-11T17:20:29.682Z,14.03
2023-04-11T17:25:32.989Z,13.88
2023-04-11T17:30:36.769Z,13.71
2023-04-11T17:35:39.502Z,13.59
2023-04-11T17:40:42.703Z,13.49
2023-04-11T17:45:48.676Z,13.33
2023-04-11T17:50:52.771Z,13.30
2023-04-11T17:55:55.684Z,13.18
2023-04-11T18:00:58.677Z,13.03
2023-04-11T18:06:03.859Z,12.81
2023-04-11T18:11:06.884Z,12.57
2023-04-11T18:16:14.516Z,12.46
2023-04-11T18:21:17.792Z,12.37
2023-04-11T18:26:21.283Z,12.18
2023-04-11T18:31:26.547Z,12.10
2023-04-11T18:36:29.314Z,12.09
2023-04-11T18:41:33.021Z,12.18
2023-04-11T18:46:36.408Z,12.14
2023-04-11T18:51:39.065Z,12.14
2023-04-11T18:56:46.568Z,12.09
2023-04-11T19:01:50.818Z,12.03
2023-04-11T19:06:55.176Z,12.00
2023-04-11T19:11:58.698Z,11.86
2023-04-11T19:17:01.758Z,11.78
2023-04-11T19:22:04.315Z,11.81
2023-04-11T19:27:08.368Z,11.78
2023-04-11T19:32:12.944Z,11.77
2023-04-11T19:37:16.986Z,11.83
2023-04-11T19:42:19.664Z,11.85
2023-04-11T19:47:22.410Z,11.70
2023-04-11T19:52:27.598Z,11.76
2023-04-11T19:57:30.153Z,11.81
2023-04-11T20:02:32.825Z,11.78
2023-04-11T20:07:35.700Z,11.73
2023-04-11T20:12:38.344Z,11.64
2023-04-11T20:17:42.256Z,11.61
2023-04-11T20:22:46.714Z,11.62
2023-04-11T20:27:49.530Z,11.69
2023-04-11T20:32:54.501Z,11.64
2023-04-11T20:37:57.036Z,11.52
2023-04-11T20:43:18.481Z,11.43
2023-04-11T20:48:39.782Z,11.32
2023-04-11T20:53:42.341Z,11.25
2023-04-11T20:59:03.944Z,11.16
2023-04-11T21:04:25.386Z,11.15
2023-04-11T21:09:28.300Z,11.09
2023-04-11T21:14:49.451Z,11.11
2023-04-11T21:19:52.160Z,11.03
2023-04-11T21:24:54.859Z,10.99
2023-04-11T21:29:57.310Z,10.92
2023-04-11T21:35:00.216Z,10.85
2023-04-11T21:40:22.026Z,10.80
2023-04-11T21:45:24.700Z,10.82
2023-04-11T21:50:46.339Z,10.83
2023-04-11T21:55:49.254Z,10.87
2023-04-11T22:00:52.451Z,10.88
2023-04-11T22:05:56.155Z,10.88
2023-04-11T22:11:17.512Z,10.90
2023-04-11T22:16:20.308Z,10.91
2023-04-11T22:21:26.638Z,10.92
2023-04-11T22:26:34.330Z,10.94
2023-04-11T22:31:39.103Z,10.92
2023-04-11T22:36:41.810Z,11.01
2023-04-11T22:42:05.168Z,11.01
2023-04-11T22:47:28.909Z,11.03
2023-04-11T22:52:31.611Z,11.05
2023-04-11T22:57:35.180Z,11.07
2023-04-11T23:02:40.277Z,10.95
2023-04-11T23:08:01.804Z,11.03
2023-04-11T23:13:23.037Z,11.02
2023-04-11T23:18:25.556Z,10.90
2023-04-11T23:23:28.311Z,10.88
2023-04-11T23:28:49.739Z,10.83
2023-04-11T23:33:53.945Z,10.86
2023-04-11T23:38:56.978Z,10.81
2023-04-11T23:43:59.694Z,10.81
2023-04-11T23:49:02.525Z,10.82
2023-04-11T23:54:07.365Z,10.77
2023-04-11T23:59:10.903Z,10.72
